sensor_id;sensor_type;location;lat;lon;timestamp;temperature;humidity
17774;DHT22;9011;33.236;-97.118;2023-02-15T00:00:07;19.10;94.40
17774;DHT22;9011;33.236;-97.118;2023-02-15T00:02:37;19.00;94.30
17774;DHT22;9011;33.236;-97.118;2023-02-15T00:05:06;19.00;94.30
17774;DHT22;9011;33.236;-97.118;2023-02-15T00:07:36;18.90;94.30
17774;DHT22;9011;33.236;-97.118;2023-02-15T00:10:06;18.80;95.00
17774;DHT22;9011;33.236;-97.118;2023-02-15T00:12:35;18.70;94.70
17774;DHT22;9011;33.236;-97.118;2023-02-15T00:15:03;18.60;94.70
17774;DHT22;9011;33.236;-97.118;2023-02-15T00:17:31;18.50;94.40
17774;DHT22;9011;33.236;-97.118;2023-02-15T00:20:00;18.50;94.60
17774;DHT22;9011;33.236;-97.118;2023-02-15T00:22:28;18.40;94.90
17774;DHT22;9011;33.236;-97.118;2023-02-15T00:24:58;18.30;94.50
17774;DHT22;9011;33.236;-97.118;2023-02-15T00:27:26;18.20;94.60
17774;DHT22;9011;33.236;-97.118;2023-02-15T00:29:55;18.10;94.90
17774;DHT22;9011;33.236;-97.118;2023-02-15T00:32:23;18.10;94.80
17774;DHT22;9011;33.236;-97.118;2023-02-15T00:34:51;18.00;94.90
17774;DHT22;9011;33.236;-97.118;2023-02-15T00:37:20;17.90;95.30
17774;DHT22;9011;33.236;-97.118;2023-02-15T00:39:48;17.90;95.50
17774;DHT22;9011;33.236;-97.118;2023-02-15T00:42:18;17.80;95.50
17774;DHT22;9011;33.236;-97.118;2023-02-15T00:44:46;17.80;95.90
17774;DHT22;9011;33.236;-97.118;2023-02-15T00:47:15;17.70;95.50
17774;DHT22;9011;33.236;-97.118;2023-02-15T00:49:43;17.70;95.50
17774;DHT22;9011;33.236;-97.118;2023-02-15T00:52:11;17.60;95.90
17774;DHT22;9011;33.236;-97.118;2023-02-15T00:54:40;17.60;95.70
17774;DHT22;9011;33.236;-97.118;2023-02-15T00:57:08;17.60;95.20
17774;DHT22;9011;33.236;-97.118;2023-02-15T00:59:38;17.60;95.40
17774;DHT22;9011;33.236;-97.118;2023-02-15T01:02:06;17.60;95.30
17774;DHT22;9011;33.236;-97.118;2023-02-15T01:04:34;17.40;95.90
17774;DHT22;9011;33.236;-97.118;2023-02-15T01:07:03;17.40;96.10
17774;DHT22;9011;33.236;-97.118;2023-02-15T01:09:31;17.30;96.20
17774;DHT22;9011;33.236;-97.118;2023-02-15T01:11:59;17.30;96.10
17774;DHT22;9011;33.236;-97.118;2023-02-15T01:14:28;17.20;96.20
17774;DHT22;9011;33.236;-97.118;2023-02-15T01:16:58;17.20;96.30
17774;DHT22;9011;33.236;-97.118;2023-02-15T01:19:26;17.10;96.10
17774;DHT22;9011;33.236;-97.118;2023-02-15T01:21:54;17.10;96.10
17774;DHT22;9011;33.236;-97.118;2023-02-15T01:24:23;17.10;95.90
17774;DHT22;9011;33.236;-97.118;2023-02-15T01:26:51;17.00;95.80
17774;DHT22;9011;33.236;-97.118;2023-02-15T01:29:19;17.00;96.00
17774;DHT22;9011;33.236;-97.118;2023-02-15T01:31:48;17.00;95.50
17774;DHT22;9011;33.236;-97.118;2023-02-15T01:34:18;16.90;95.70
17774;DHT22;9011;33.236;-97.118;2023-02-15T01:36:46;16.90;95.70
17774;DHT22;9011;33.236;-97.118;2023-02-15T01:39:15;16.90;95.50
17774;DHT22;9011;33.236;-97.118;2023-02-15T01:41:43;16.90;96.10
17774;DHT22;9011;33.236;-97.118;2023-02-15T01:44:48;16.80;96.40
17774;DHT22;9011;33.236;-97.118;2023-02-15T01:47:21;16.70;96.60
17774;DHT22;9011;33.236;-97.118;2023-02-15T01:49:58;16.60;96.70
17774;DHT22;9011;33.236;-97.118;2023-02-15T01:52:28;16.60;97.10
17774;DHT22;9011;33.236;-97.118;2023-02-15T01:54:57;16.60;96.50
17774;DHT22;9011;33.236;-97.118;2023-02-15T01:57:26;16.50;96.60
17774;DHT22;9011;33.236;-97.118;2023-02-15T01:59:57;16.50;96.80
17774;DHT22;9011;33.236;-97.118;2023-02-15T02:02:28;16.30;97.50
17774;DHT22;9011;33.236;-97.118;2023-02-15T02:05:00;16.30;97.20
17774;DHT22;9011;33.236;-97.118;2023-02-15T02:07:34;16.30;97.30
17774;DHT22;9011;33.236;-97.118;2023-02-15T02:10:07;16.20;97.10
17774;DHT22;9011;33.236;-97.118;2023-02-15T02:12:36;16.20;97.00
17774;DHT22;9011;33.236;-97.118;2023-02-15T02:15:06;16.20;97.10
17774;DHT22;9011;33.236;-97.118;2023-02-15T02:17:41;16.10;97.30
17774;DHT22;9011;33.236;-97.118;2023-02-15T02:20:41;16.10;97.30
17774;DHT22;9011;33.236;-97.118;2023-02-15T02:23:39;16.10;97.40
17774;DHT22;9011;33.236;-97.118;2023-02-15T02:29:57;16.00;97.30
17774;DHT22;9011;33.236;-97.118;2023-02-15T02:33:09;16.00;97.50
17774;DHT22;9011;33.236;-97.118;2023-02-15T02:35:51;16.00;97.70
17774;DHT22;9011;33.236;-97.118;2023-02-15T02:38:26;15.90;97.30
17774;DHT22;9011;33.236;-97.118;2023-02-15T02:41:01;15.90;97.30
17774;DHT22;9011;33.236;-97.118;2023-02-15T02:43:37;15.80;97.70
17774;DHT22;9011;33.236;-97.118;2023-02-15T02:46:12;15.80;97.60
17774;DHT22;9011;33.236;-97.118;2023-02-15T02:48:44;15.80;97.90
17774;DHT22;9011;33.236;-97.118;2023-02-15T02:51:13;15.70;98.00
17774;DHT22;9011;33.236;-97.118;2023-02-15T02:53:49;15.70;98.60
17774;DHT22;9011;33.236;-97.118;2023-02-15T02:56:23;15.60;99.90
17774;DHT22;9011;33.236;-97.118;2023-02-15T02:58:57;15.40;99.90
17774;DHT22;9011;33.236;-97.118;2023-02-15T03:01:31;15.40;99.80
17774;DHT22;9011;33.236;-97.118;2023-02-15T03:04:05;15.30;99.90
17774;DHT22;9011;33.236;-97.118;2023-02-15T03:06:39;15.10;99.90
17774;DHT22;9011;33.236;-97.118;2023-02-15T03:09:11;15.00;99.90
17774;DHT22;9011;33.236;-97.118;2023-02-15T03:11:48;14.90;99.90
17774;DHT22;9011;33.236;-97.118;2023-02-15T03:14:18;14.70;99.90
17774;DHT22;9011;33.236;-97.118;2023-02-15T03:16:48;14.60;99.90
17774;DHT22;9011;33.236;-97.118;2023-02-15T03:19:22;14.50;99.90
17774;DHT22;9011;33.236;-97.118;2023-02-15T03:21:56;14.50;99.90
17774;DHT22;9011;33.236;-97.118;2023-02-15T03:24:34;14.50;99.90
17774;DHT22;9011;33.236;-97.118;2023-02-15T03:27:05;14.30;99.90
17774;DHT22;9011;33.236;-97.118;2023-02-15T03:29:35;14.20;99.90
17774;DHT22;9011;33.236;-97.118;2023-02-15T03:32:06;14.00;99.90
17774;DHT22;9011;33.236;-97.118;2023-02-15T03:34:38;14.00;99.90
17774;DHT22;9011;33.236;-97.118;2023-02-15T03:37:11;13.90;99.90
17774;DHT22;9011;33.236;-97.118;2023-02-15T03:39:47;13.80;99.90
17774;DHT22;9011;33.236;-97.118;2023-02-15T03:42:19;13.80;99.90
17774;DHT22;9011;33.236;-97.118;2023-02-15T03:44:56;13.80;99.90
17774;DHT22;9011;33.236;-97.118;2023-02-15T03:47:31;13.70;99.90
17774;DHT22;9011;33.236;-97.118;2023-02-15T03:50:05;13.70;99.90
17774;DHT22;9011;33.236;-97.118;2023-02-15T03:52:58;13.60;99.90
17774;DHT22;9011;33.236;-97.118;2023-02-15T03:55:26;13.50;99.90
17774;DHT22;9011;33.236;-97.118;2023-02-15T03:57:56;13.50;99.90
17774;DHT22;9011;33.236;-97.118;2023-02-15T04:00:45;13.40;99.90
17774;DHT22;9011;33.236;-97.118;2023-02-15T04:03:36;13.40;99.90
17774;DHT22;9011;33.236;-97.118;2023-02-15T04:06:08;13.40;99.90
17774;DHT22;9011;33.236;-97.118;2023-02-15T04:08:37;13.30;99.90
17774;DHT22;9011;33.236;-97.118;2023-02-15T04:11:22;13.30;99.90
17774;DHT22;9011;33.236;-97.118;2023-02-15T04:13:51;13.30;99.90
17774;DHT22;9011;33.236;-97.118;2023-02-15T04:16:24;13.30;99.90
17774;DHT22;9011;33.236;-97.118;2023-02-15T04:18:52;13.40;99.90
17774;DHT22;9011;33.236;-97.118;2023-02-15T04:21:38;13.40;99.90
17774;DHT22;9011;33.236;-97.118;2023-02-15T04:24:24;13.50;99.90
17774;DHT22;9011;33.236;-97.118;2023-02-15T04:27:09;13.50;99.90
17774;DHT22;9011;33.236;-97.118;2023-02-15T04:29:37;13.50;99.90
17774;DHT22;9011;33.236;-97.118;2023-02-15T04:32:06;13.50;99.90
17774;DHT22;9011;33.236;-97.118;2023-02-15T04:34:34;13.50;99.90
17774;DHT22;9011;33.236;-97.118;2023-02-15T04:37:04;13.50;99.90
17774;DHT22;9011;33.236;-97.118;2023-02-15T04:39:33;13.50;99.90
17774;DHT22;9011;33.236;-97.118;2023-02-15T04:42:01;13.50;99.90
17774;DHT22;9011;33.236;-97.118;2023-02-15T04:44:29;13.50;99.90
17774;DHT22;9011;33.236;-97.118;2023-02-15T04:46:58;13.50;99.90
17774;DHT22;9011;33.236;-97.118;2023-02-15T04:49:27;13.50;99.90
17774;DHT22;9011;33.236;-97.118;2023-02-15T04:51:55;13.50;99.90
17774;DHT22;9011;33.236;-97.118;2023-02-15T04:54:26;13.50;99.90
17774;DHT22;9011;33.236;-97.118;2023-02-15T04:56:54;13.50;99.90
17774;DHT22;9011;33.236;-97.118;2023-02-15T04:59:23;13.50;99.90
17774;DHT22;9011;33.236;-97.118;2023-02-15T05:01:51;13.50;99.90
17774;DHT22;9011;33.236;-97.118;2023-02-15T05:04:20;13.50;99.90
17774;DHT22;9011;33.236;-97.118;2023-02-15T05:06:48;13.40;99.90
17774;DHT22;9011;33.236;-97.118;2023-02-15T05:09:17;13.40;99.90
17774;DHT22;9011;33.236;-97.118;2023-02-15T05:11:47;13.40;99.90
17774;DHT22;9011;33.236;-97.118;2023-02-15T05:14:16;13.30;99.90
17774;DHT22;9011;33.236;-97.118;2023-02-15T05:16:44;13.30;99.90
17774;DHT22;9011;33.236;-97.118;2023-02-15T05:19:13;13.30;99.90
17774;DHT22;9011;33.236;-97.118;2023-02-15T05:21:41;13.30;99.90
17774;DHT22;9011;33.236;-97.118;2023-02-15T05:24:10;13.20;99.90
17774;DHT22;9011;33.236;-97.118;2023-02-15T05:26:53;13.20;99.90
17774;DHT22;9011;33.236;-97.118;2023-02-15T05:29:38;13.20;99.90
17774;DHT22;9011;33.236;-97.118;2023-02-15T05:32:06;13.10;99.90
17774;DHT22;9011;33.236;-97.118;2023-02-15T05:34:36;13.00;99.90
17774;DHT22;9011;33.236;-97.118;2023-02-15T05:37:05;13.00;99.90
17774;DHT22;9011;33.236;-97.118;2023-02-15T05:39:34;12.90;99.90
17774;DHT22;9011;33.236;-97.118;2023-02-15T05:42:04;12.90;99.90
17774;DHT22;9011;33.236;-97.118;2023-02-15T05:44:33;12.90;99.90
17774;DHT22;9011;33.236;-97.118;2023-02-15T05:47:01;12.80;99.90
17774;DHT22;9011;33.236;-97.118;2023-02-15T05:49:30;12.90;99.90
17774;DHT22;9011;33.236;-97.118;2023-02-15T05:51:59;12.80;99.90
17774;DHT22;9011;33.236;-97.118;2023-02-15T05:54:28;12.80;99.90
17774;DHT22;9011;33.236;-97.118;2023-02-15T05:56:56;12.80;99.90
17774;DHT22;9011;33.236;-97.118;2023-02-15T05:59:26;12.80;99.90
17774;DHT22;9011;33.236;-97.118;2023-02-15T06:01:55;12.70;99.90
17774;DHT22;9011;33.236;-97.118;2023-02-15T06:04:24;12.70;99.90
17774;DHT22;9011;33.236;-97.118;2023-02-15T06:06:52;12.60;99.90
17774;DHT22;9011;33.236;-97.118;2023-02-15T06:09:21;12.60;99.90
17774;DHT22;9011;33.236;-97.118;2023-02-15T06:11:50;12.60;99.90
17774;DHT22;9011;33.236;-97.118;2023-02-15T06:14:18;12.50;99.90
17774;DHT22;9011;33.236;-97.118;2023-02-15T06:16:49;12.50;99.90
17774;DHT22;9011;33.236;-97.118;2023-02-15T06:19:17;12.40;99.90
17774;DHT22;9011;33.236;-97.118;2023-02-15T06:21:46;12.30;99.90
17774;DHT22;9011;33.236;-97.118;2023-02-15T06:24:15;12.20;99.90
17774;DHT22;9011;33.236;-97.118;2023-02-15T06:26:43;12.30;99.90
17774;DHT22;9011;33.236;-97.118;2023-02-15T06:29:12;12.40;99.90
17774;DHT22;9011;33.236;-97.118;2023-02-15T06:31:40;12.40;99.90
17774;DHT22;9011;33.236;-97.118;2023-02-15T06:34:10;12.50;99.90
17774;DHT22;9011;33.236;-97.118;2023-02-15T06:36:39;12.60;99.90
17774;DHT22;9011;33.236;-97.118;2023-02-15T06:39:07;12.90;99.90
17774;DHT22;9011;33.236;-97.118;2023-02-15T06:41:36;12.90;99.90
17774;DHT22;9011;33.236;-97.118;2023-02-15T06:44:05;13.10;99.90
17774;DHT22;9011;33.236;-97.118;2023-02-15T06:46:33;13.10;99.80
17774;DHT22;9011;33.236;-97.118;2023-02-15T06:49:01;13.20;99.80
17774;DHT22;9011;33.236;-97.118;2023-02-15T06:51:31;13.30;99.60
17774;DHT22;9011;33.236;-97.118;2023-02-15T06:54:00;13.40;99.40
17774;DHT22;9011;33.236;-97.118;2023-02-15T06:56:29;13.50;98.60
17774;DHT22;9011;33.236;-97.118;2023-02-15T06:58:57;13.60;98.90
17774;DHT22;9011;33.236;-97.118;2023-02-15T07:01:26;13.60;98.80
17774;DHT22;9011;33.236;-97.118;2023-02-15T07:03:55;13.80;98.30
17774;DHT22;9011;33.236;-97.118;2023-02-15T07:06:23;13.80;98.20
17774;DHT22;9011;33.236;-97.118;2023-02-15T07:08:53;13.80;98.20
17774;DHT22;9011;33.236;-97.118;2023-02-15T07:11:21;13.90;98.30
17774;DHT22;9011;33.236;-97.118;2023-02-15T07:14:07;13.90;98.30
17774;DHT22;9011;33.236;-97.118;2023-02-15T07:16:35;14.00;97.90
17774;DHT22;9011;33.236;-97.118;2023-02-15T07:19:04;13.90;97.90
17774;DHT22;9011;33.236;-97.118;2023-02-15T07:21:33;13.90;97.80
17774;DHT22;9011;33.236;-97.118;2023-02-15T07:24:03;14.00;97.40
17774;DHT22;9011;33.236;-97.118;2023-02-15T07:26:32;14.00;97.70
17774;DHT22;9011;33.236;-97.118;2023-02-15T07:29:00;14.00;97.70
17774;DHT22;9011;33.236;-97.118;2023-02-15T07:31:29;14.00;97.90
17774;DHT22;9011;33.236;-97.118;2023-02-15T07:33:58;13.90;98.10
17774;DHT22;9011;33.236;-97.118;2023-02-15T07:36:27;13.90;97.90
17774;DHT22;9011;33.236;-97.118;2023-02-15T07:38:55;13.80;98.10
17774;DHT22;9011;33.236;-97.118;2023-02-15T07:41:25;13.70;98.30
17774;DHT22;9011;33.236;-97.118;2023-02-15T07:43:54;13.60;98.60
17774;DHT22;9011;33.236;-97.118;2023-02-15T07:46:22;13.60;99.30
17774;DHT22;9011;33.236;-97.118;2023-02-15T07:48:51;13.50;99.90
17774;DHT22;9011;33.236;-97.118;2023-02-15T07:51:19;13.30;99.90
17774;DHT22;9011;33.236;-97.118;2023-02-15T07:53:48;13.20;99.90
17774;DHT22;9011;33.236;-97.118;2023-02-15T07:56:17;13.10;99.90
17774;DHT22;9011;33.236;-97.118;2023-02-15T07:58:47;13.00;99.90
17774;DHT22;9011;33.236;-97.118;2023-02-15T08:01:20;12.90;99.90
17774;DHT22;9011;33.236;-97.118;2023-02-15T08:03:49;12.80;99.90
17774;DHT22;9011;33.236;-97.118;2023-02-15T08:06:18;12.80;99.90
17774;DHT22;9011;33.236;-97.118;2023-02-15T08:08:46;12.60;99.90
17774;DHT22;9011;33.236;-97.118;2023-02-15T08:11:17;12.70;99.90
17774;DHT22;9011;33.236;-97.118;2023-02-15T08:14:06;12.60;99.90
17774;DHT22;9011;33.236;-97.118;2023-02-15T08:16:36;12.50;99.90
17774;DHT22;9011;33.236;-97.118;2023-02-15T08:19:07;12.30;99.90
17774;DHT22;9011;33.236;-97.118;2023-02-15T08:21:37;12.40;99.90
17774;DHT22;9011;33.236;-97.118;2023-02-15T08:24:06;12.30;99.90
17774;DHT22;9011;33.236;-97.118;2023-02-15T08:26:36;12.30;99.90
17774;DHT22;9011;33.236;-97.118;2023-02-15T08:29:07;12.20;99.90
17774;DHT22;9011;33.236;-97.118;2023-02-15T08:31:36;12.20;99.90
17774;DHT22;9011;33.236;-97.118;2023-02-15T08:34:05;12.20;99.90
17774;DHT22;9011;33.236;-97.118;2023-02-15T08:36:33;12.10;99.90
17774;DHT22;9011;33.236;-97.118;2023-02-15T08:39:03;12.10;99.90
17774;DHT22;9011;33.236;-97.118;2023-02-15T08:41:33;12.10;99.90
17774;DHT22;9011;33.236;-97.118;2023-02-15T08:44:04;12.10;99.90
17774;DHT22;9011;33.236;-97.118;2023-02-15T08:46:36;12.00;99.90
17774;DHT22;9011;33.236;-97.118;2023-02-15T08:49:05;11.90;99.90
17774;DHT22;9011;33.236;-97.118;2023-02-15T08:51:35;11.90;99.90
17774;DHT22;9011;33.236;-97.118;2023-02-15T08:54:06;11.80;99.90
17774;DHT22;9011;33.236;-97.118;2023-02-15T08:56:36;11.70;99.90
17774;DHT22;9011;33.236;-97.118;2023-02-15T08:59:07;11.70;99.90
17774;DHT22;9011;33.236;-97.118;2023-02-15T09:01:40;11.80;99.90
17774;DHT22;9011;33.236;-97.118;2023-02-15T09:04:10;11.80;99.90
17774;DHT22;9011;33.236;-97.118;2023-02-15T09:06:40;11.70;99.90
17774;DHT22;9011;33.236;-97.118;2023-02-15T09:09:10;11.70;99.90
17774;DHT22;9011;33.236;-97.118;2023-02-15T09:11:39;11.60;99.90
17774;DHT22;9011;33.236;-97.118;2023-02-15T09:14:10;11.60;99.90
17774;DHT22;9011;33.236;-97.118;2023-02-15T09:16:43;11.50;99.90
17774;DHT22;9011;33.236;-97.118;2023-02-15T09:19:14;11.50;99.90
17774;DHT22;9011;33.236;-97.118;2023-02-15T09:21:43;11.60;99.90
17774;DHT22;9011;33.236;-97.118;2023-02-15T09:24:14;11.50;99.90
17774;DHT22;9011;33.236;-97.118;2023-02-15T09:26:44;11.50;99.90
17774;DHT22;9011;33.236;-97.118;2023-02-15T09:29:15;11.50;99.90
17774;DHT22;9011;33.236;-97.118;2023-02-15T09:31:48;11.50;99.90
17774;DHT22;9011;33.236;-97.118;2023-02-15T09:34:17;11.40;99.90
17774;DHT22;9011;33.236;-97.118;2023-02-15T09:36:46;11.40;99.90
17774;DHT22;9011;33.236;-97.118;2023-02-15T09:39:16;11.40;99.90
17774;DHT22;9011;33.236;-97.118;2023-02-15T09:45:03;11.20;99.90
17774;DHT22;9011;33.236;-97.118;2023-02-15T09:47:57;11.10;99.90
17774;DHT22;9011;33.236;-97.118;2023-02-15T09:50:33;11.20;99.90
17774;DHT22;9011;33.236;-97.118;2023-02-15T09:53:29;11.10;99.90
17774;DHT22;9011;33.236;-97.118;2023-02-15T09:56:05;11.10;99.90
17774;DHT22;9011;33.236;-97.118;2023-02-15T09:58:44;11.00;99.90
17774;DHT22;9011;33.236;-97.118;2023-02-15T10:01:20;10.80;99.90
17774;DHT22;9011;33.236;-97.118;2023-02-15T10:04:04;10.60;99.90
17774;DHT22;9011;33.236;-97.118;2023-02-15T10:06:40;10.60;99.90
17774;DHT22;9011;33.236;-97.118;2023-02-15T10:09:31;10.50;99.90
17774;DHT22;9011;33.236;-97.118;2023-02-15T10:15:09;10.40;99.90
17774;DHT22;9011;33.236;-97.118;2023-02-15T10:17:51;10.40;99.90
17774;DHT22;9011;33.236;-97.118;2023-02-15T10:20:30;10.30;99.90
17774;DHT22;9011;33.236;-97.118;2023-02-15T10:23:18;10.00;99.90
17774;DHT22;9011;33.236;-97.118;2023-02-15T10:25:53;9.90;99.90
17774;DHT22;9011;33.236;-97.118;2023-02-15T10:28:28;9.80;99.90
17774;DHT22;9011;33.236;-97.118;2023-02-15T10:31:02;9.80;99.90
17774;DHT22;9011;33.236;-97.118;2023-02-15T10:33:39;9.70;99.90
17774;DHT22;9011;33.236;-97.118;2023-02-15T10:36:19;9.50;99.90
17774;DHT22;9011;33.236;-97.118;2023-02-15T10:39:00;9.40;99.90
17774;DHT22;9011;33.236;-97.118;2023-02-15T10:41:36;9.30;99.90
17774;DHT22;9011;33.236;-97.118;2023-02-15T10:44:28;9.00;99.90
17774;DHT22;9011;33.236;-97.118;2023-02-15T10:47:26;9.10;99.90
17774;DHT22;9011;33.236;-97.118;2023-02-15T10:50:11;9.20;99.90
17774;DHT22;9011;33.236;-97.118;2023-02-15T10:52:51;9.20;99.90
17774;DHT22;9011;33.236;-97.118;2023-02-15T10:55:30;9.00;99.90
17774;DHT22;9011;33.236;-97.118;2023-02-15T10:58:07;9.00;99.90
17774;DHT22;9011;33.236;-97.118;2023-02-15T11:00:40;8.90;99.90
17774;DHT22;9011;33.236;-97.118;2023-02-15T11:03:22;8.90;99.90
17774;DHT22;9011;33.236;-97.118;2023-02-15T11:06:00;8.80;99.90
17774;DHT22;9011;33.236;-97.118;2023-02-15T11:08:35;8.80;99.90
17774;DHT22;9011;33.236;-97.118;2023-02-15T11:11:08;8.70;99.90
17774;DHT22;9011;33.236;-97.118;2023-02-15T11:13:40;8.70;99.90
17774;DHT22;9011;33.236;-97.118;2023-02-15T11:16:14;8.60;99.90
17774;DHT22;9011;33.236;-97.118;2023-02-15T11:18:48;8.50;99.90
17774;DHT22;9011;33.236;-97.118;2023-02-15T11:21:22;8.50;99.90
17774;DHT22;9011;33.236;-97.118;2023-02-15T11:23:54;8.50;99.90
17774;DHT22;9011;33.236;-97.118;2023-02-15T11:26:28;8.50;99.90
17774;DHT22;9011;33.236;-97.118;2023-02-15T11:29:01;8.40;99.90
17774;DHT22;9011;33.236;-97.118;2023-02-15T11:31:44;8.40;99.90
17774;DHT22;9011;33.236;-97.118;2023-02-15T11:34:18;8.40;99.90
17774;DHT22;9011;33.236;-97.118;2023-02-15T11:36:48;8.40;99.90
17774;DHT22;9011;33.236;-97.118;2023-02-15T11:39:21;8.30;99.90
17774;DHT22;9011;33.236;-97.118;2023-02-15T11:41:52;8.00;99.90
17774;DHT22;9011;33.236;-97.118;2023-02-15T11:44:23;8.20;99.90
17774;DHT22;9011;33.236;-97.118;2023-02-15T11:46:53;8.20;99.90
17774;DHT22;9011;33.236;-97.118;2023-02-15T11:49:24;8.00;99.90
17774;DHT22;9011;33.236;-97.118;2023-02-15T11:51:55;8.00;99.90
17774;DHT22;9011;33.236;-97.118;2023-02-15T11:54:28;8.00;99.90
17774;DHT22;9011;33.236;-97.118;2023-02-15T11:57:03;8.00;99.90
17774;DHT22;9011;33.236;-97.118;2023-02-15T11:59:37;8.00;99.90
17774;DHT22;9011;33.236;-97.118;2023-02-15T12:02:15;8.10;99.90
17774;DHT22;9011;33.236;-97.118;2023-02-15T12:04:48;8.20;99.90
17774;DHT22;9011;33.236;-97.118;2023-02-15T12:07:23;8.30;99.90
17774;DHT22;9011;33.236;-97.118;2023-02-15T12:10:00;8.50;99.90
17774;DHT22;9011;33.236;-97.118;2023-02-15T12:12:34;8.50;99.90
17774;DHT22;9011;33.236;-97.118;2023-02-15T12:15:05;8.60;99.90
17774;DHT22;9011;33.236;-97.118;2023-02-15T12:17:35;8.70;99.90
17774;DHT22;9011;33.236;-97.118;2023-02-15T12:20:21;8.80;99.90
17774;DHT22;9011;33.236;-97.118;2023-02-15T12:22:54;8.90;99.90
17774;DHT22;9011;33.236;-97.118;2023-02-15T12:25:35;8.90;99.90
17774;DHT22;9011;33.236;-97.118;2023-02-15T12:28:22;8.90;99.90
17774;DHT22;9011;33.236;-97.118;2023-02-15T12:30:52;9.00;99.90
17774;DHT22;9011;33.236;-97.118;2023-02-15T12:33:27;8.90;99.90
17774;DHT22;9011;33.236;-97.118;2023-02-15T12:35:59;9.00;99.90
17774;DHT22;9011;33.236;-97.118;2023-02-15T12:38:28;9.00;99.90
17774;DHT22;9011;33.236;-97.118;2023-02-15T12:41:00;8.90;99.90
17774;DHT22;9011;33.236;-97.118;2023-02-15T12:43:32;8.90;99.90
17774;DHT22;9011;33.236;-97.118;2023-02-15T12:46:20;8.90;99.90
17774;DHT22;9011;33.236;-97.118;2023-02-15T12:49:06;8.90;99.90
17774;DHT22;9011;33.236;-97.118;2023-02-15T12:51:49;8.90;99.90
17774;DHT22;9011;33.236;-97.118;2023-02-15T12:54:30;8.90;99.90
17774;DHT22;9011;33.236;-97.118;2023-02-15T12:57:14;8.80;99.90
17774;DHT22;9011;33.236;-97.118;2023-02-15T12:59:50;8.80;99.90
17774;DHT22;9011;33.236;-97.118;2023-02-15T13:02:23;8.80;99.90
17774;DHT22;9011;33.236;-97.118;2023-02-15T13:04:53;8.70;99.90
17774;DHT22;9011;33.236;-97.118;2023-02-15T13:07:22;8.40;99.90
17774;DHT22;9011;33.236;-97.118;2023-02-15T13:09:52;8.50;99.90
17774;DHT22;9011;33.236;-97.118;2023-02-15T13:12:24;8.50;99.90
17774;DHT22;9011;33.236;-97.118;2023-02-15T13:14:55;8.50;99.90
17774;DHT22;9011;33.236;-97.118;2023-02-15T13:17:26;8.60;99.90
17774;DHT22;9011;33.236;-97.118;2023-02-15T13:20:00;8.50;99.90
17774;DHT22;9011;33.236;-97.118;2023-02-15T13:22:36;8.40;99.90
17774;DHT22;9011;33.236;-97.118;2023-02-15T13:25:14;8.50;99.90
17774;DHT22;9011;33.236;-97.118;2023-02-15T13:27:50;8.50;99.90
17774;DHT22;9011;33.236;-97.118;2023-02-15T13:30:28;8.40;99.90
17774;DHT22;9011;33.236;-97.118;2023-02-15T13:33:03;8.50;99.90
17774;DHT22;9011;33.236;-97.118;2023-02-15T13:35:39;8.50;99.90
17774;DHT22;9011;33.236;-97.118;2023-02-15T13:38:28;8.50;99.90
17774;DHT22;9011;33.236;-97.118;2023-02-15T13:41:04;8.50;99.90
17774;DHT22;9011;33.236;-97.118;2023-02-15T13:43:46;8.50;99.90
17774;DHT22;9011;33.236;-97.118;2023-02-15T13:46:34;8.50;99.90
17774;DHT22;9011;33.236;-97.118;2023-02-15T13:49:17;8.60;99.90
17774;DHT22;9011;33.236;-97.118;2023-02-15T13:51:54;8.60;99.90
17774;DHT22;9011;33.236;-97.118;2023-02-15T13:54:49;8.70;99.90
17774;DHT22;9011;33.236;-97.118;2023-02-15T13:57:34;8.90;99.90
17774;DHT22;9011;33.236;-97.118;2023-02-15T14:00:17;9.00;99.90
17774;DHT22;9011;33.236;-97.118;2023-02-15T14:09:03;9.50;99.90
17774;DHT22;9011;33.236;-97.118;2023-02-15T14:11:38;9.60;99.90
17774;DHT22;9011;33.236;-97.118;2023-02-15T14:14:38;9.70;99.90
17774;DHT22;9011;33.236;-97.118;2023-02-15T14:17:15;9.90;99.90
17774;DHT22;9011;33.236;-97.118;2023-02-15T14:19:48;10.10;99.90
17774;DHT22;9011;33.236;-97.118;2023-02-15T14:22:25;10.20;99.90
17774;DHT22;9011;33.236;-97.118;2023-02-15T14:25:14;10.30;99.90
17774;DHT22;9011;33.236;-97.118;2023-02-15T14:27:50;10.50;99.90
17774;DHT22;9011;33.236;-97.118;2023-02-15T14:30:22;10.70;99.90
17774;DHT22;9011;33.236;-97.118;2023-02-15T14:32:56;10.70;99.90
17774;DHT22;9011;33.236;-97.118;2023-02-15T14:35:27;10.80;99.90
17774;DHT22;9011;33.236;-97.118;2023-02-15T14:38:00;10.90;99.90
17774;DHT22;9011;33.236;-97.118;2023-02-15T14:40:36;11.10;99.90
17774;DHT22;9011;33.236;-97.118;2023-02-15T14:43:31;11.20;99.90
17774;DHT22;9011;33.236;-97.118;2023-02-15T14:46:07;11.40;99.90
17774;DHT22;9011;33.236;-97.118;2023-02-15T14:48:43;11.50;99.90
17774;DHT22;9011;33.236;-97.118;2023-02-15T14:51:57;11.70;99.90
17774;DHT22;9011;33.236;-97.118;2023-02-15T14:54:53;12.00;99.90
17774;DHT22;9011;33.236;-97.118;2023-02-15T14:57:25;12.40;99.90
17774;DHT22;9011;33.236;-97.118;2023-02-15T14:59:58;12.60;99.90
17774;DHT22;9011;33.236;-97.118;2023-02-15T15:02:30;12.80;99.90
17774;DHT22;9011;33.236;-97.118;2023-02-15T15:05:11;12.90;99.90
17774;DHT22;9011;33.236;-97.118;2023-02-15T15:07:44;13.20;99.90
17774;DHT22;9011;33.236;-97.118;2023-02-15T15:10:41;13.40;99.90
17774;DHT22;9011;33.236;-97.118;2023-02-15T15:13:35;13.60;99.90
17774;DHT22;9011;33.236;-97.118;2023-02-15T15:16:46;13.80;99.90
17774;DHT22;9011;33.236;-97.118;2023-02-15T15:22:27;14.20;99.90
17774;DHT22;9011;33.236;-97.118;2023-02-15T15:24:56;14.40;99.90
17774;DHT22;9011;33.236;-97.118;2023-02-15T15:27:50;14.60;99.90
17774;DHT22;9011;33.236;-97.118;2023-02-15T15:30:48;14.80;99.90
17774;DHT22;9011;33.236;-97.118;2023-02-15T15:36:44;15.30;99.90
17774;DHT22;9011;33.236;-97.118;2023-02-15T15:42:31;15.70;99.90
17774;DHT22;9011;33.236;-97.118;2023-02-15T15:50:58;16.50;99.90
17774;DHT22;9011;33.236;-97.118;2023-02-15T15:53:28;16.70;99.90
17774;DHT22;9011;33.236;-97.118;2023-02-15T15:56:02;16.90;99.90
17774;DHT22;9011;33.236;-97.118;2023-02-15T15:58:33;17.20;99.90
17774;DHT22;9011;33.236;-97.118;2023-02-15T16:01:05;17.40;99.90
17774;DHT22;9011;33.236;-97.118;2023-02-15T16:03:34;17.60;99.90
17774;DHT22;9011;33.236;-97.118;2023-02-15T16:06:03;17.70;99.90
17774;DHT22;9011;33.236;-97.118;2023-02-15T16:08:33;17.80;99.90
17774;DHT22;9011;33.236;-97.118;2023-02-15T16:11:13;18.00;99.90
17774;DHT22;9011;33.236;-97.118;2023-02-15T16:13:42;18.20;99.90
17774;DHT22;9011;33.236;-97.118;2023-02-15T16:16:13;18.30;99.90
17774;DHT22;9011;33.236;-97.118;2023-02-15T16:18:47;18.50;99.90
17774;DHT22;9011;33.236;-97.118;2023-02-15T16:21:18;18.60;99.90
17774;DHT22;9011;33.236;-97.118;2023-02-15T16:24:04;18.80;99.90
17774;DHT22;9011;33.236;-97.118;2023-02-15T16:26:58;19.00;99.90
17774;DHT22;9011;33.236;-97.118;2023-02-15T16:29:30;19.20;99.90
17774;DHT22;9011;33.236;-97.118;2023-02-15T16:32:00;19.40;99.90